Thursday, December 18, 2014
16:22 UTC
  |  Log In   |  Register Free
Airport Search:

Owosso Community Airport
(KRNP)

Owosso Community Airport Diagram
No Airport Diagram Available

FAA data valid effective November 13, 2014 - January 08, 2015 (unless otherwise noted).

 
 
 
 
 
 
 
 
 
 
 
 
 
 

Current Aviation Weather for Owosso Community Airport (KRNP)

The most recent METAR observation for KRNP was updated at: 1516
METAR Summary (Translated METAR)
KRNP
181455Z AUTO 26006KT 5SM BR BKN009 OVC016 M01/M01 A3020 RMK AO2 T10061013
K4M4
140000Z VRB05KT 25SM SKC 16/04
(13.4 nm NW from KRNP)
KFNT
181553Z 28007KT 7SM OVC010 01/M02 A3020 RMK AO2 CIG 008V014 SLP238 T00061022
(17.4 nm SE from KRNP)
TAF Summary (Translated TAF)
KFNT
(17.4 nm SE from KRNP)
181136Z 1812/1912 29010KT P6SM OVC015 FM190100 33005KT P6SM OVC020
  Airport Weather Conditions for KRNP

 Current Weather at RNP
31° F
Fog/Mist
West winds at 8.1 mph
RNP NOAA Radar

Pressure: 30.21 in
Humidity: 96%
Wind: West at 8.1 MPH (7 KT)
Dew Point: 30.6°F
Visibility: 3.00 mi


Airport Weather Forecast for KRNP

Translated METAR and TAF for KRNP
Translated METAR for KRNP (1622 UTC 18 December 2014)
found at http://aviationweather.gov/adds/metars/
 
METAR text: KRNP 181615Z AUTO 29007KT 2 1/2SM BR BKN007 OVC014 00/M01 A3021 RMK AO2 T10031007
Conditions at: KRNP (OWOSSO , MI, US) observed 1615 UTC 18 December 2014
Temperature: -0.3°C (31°F)
Dewpoint: -0.7°C (31°F) [RH = 97%]
Pressure (altimeter): 30.21 inches Hg (1023.1 mb)
Winds: from the WNW (290 degrees) at 8 MPH (7 knots; 3.6 m/s)
Visibility: 2.50 miles (4.02 km)
Ceiling: 700 feet AGL
Clouds: broken clouds at 700 feet AGL
overcast cloud deck at 1400 feet AGL
Weather: BR  (mist)
Translated TAF for KRNP

There is no translated TAF available for this airport

Find All Airport Services Find A Hotel Find A Rental Car Find A Golf Course Find A Restaurant $100 Hamburger



FBO's on the Field
FBO Company Facility Photos Services Transportation Aviation Fuel Prices: Prices include tax
Catering Weather Repair Courtesy Rental Type 100LL JetA JetA+ MOGAS 8087
 
Owosso Community Airport

This FBO has not yet been rated
FS:Avfuel
Last Updated: Nov-12
Login to update fuel prices
SS:
Contact Owosso Community AirportMore FBO Information
 
Add another FBO Facility Photos Catering Weather Repair Courtesy Rental Type 100LL JetA JetA+ MOGAS 8087
Services Transportation Aviation Fuel Prices: Prices include tax


model-print
model-print
model-print
model-print